Lake Village, Arkansas
Current Conditions -  °F | °C
As of 2:53 AM on Sunday 26 Oct 2014 (Local Time) from KGLH Reporting Station
Clear Clear  
Wind Chill: 60°   Ceiling: Unl
Heat Index: 60°   Visibility: 8mi
Dew Point: 58°   Wind: 5mph
Humidity: 93%   Direction: 220°SW
Pressure: 30.02"   Gusts: NA
Location:  33.33°N, 91.28°W
Report Text: KGLH 260753Z AUTO 22004KT 8SM CLR 16/14 A3002 RMK AO2 SLP172 T01560144
Loading
Personal Weather Stations






























Interactive Weather Map
Tropical Storm Tracking
New forecast layout! Learn more

10-Day Weather Forecast

Advertisements
Track Severe Weather on mobile